sensor_id;sensor_type;location;lat;lon;timestamp;pressure;altitude;pressure_sealevel;temperature;humidity
39105;BME280;46464;51.154;13.812;2023-03-21T00:00:40;52305.84;;;-146.96;93.49
39105;BME280;46464;51.154;13.812;2023-03-21T00:03:06;52297.72;;;-146.96;92.85
39105;BME280;46464;51.154;13.812;2023-03-21T00:05:33;52311.94;;;-146.96;92.65
39105;BME280;46464;51.154;13.812;2023-03-21T00:07:59;52281.44;;;-146.96;92.58
39105;BME280;46464;51.154;13.812;2023-03-21T00:10:28;52287.53;;;-146.96;93.76
39105;BME280;46464;51.154;13.812;2023-03-21T00:13:06;52277.34;;;-146.96;93.46
39105;BME280;46464;51.154;13.812;2023-03-21T00:15:33;52281.44;;;-146.96;93.49
39105;BME280;46464;51.154;13.812;2023-03-21T00:18:16;52309.91;;;-146.96;93.07
39105;BME280;46464;51.154;13.812;2023-03-21T00:20:42;52326.19;;;-146.96;93.63
39105;BME280;46464;51.154;13.812;2023-03-21T00:23:12;52328.22;;;-146.96;94.63
39105;BME280;46464;51.154;13.812;2023-03-21T00:25:38;52330.25;;;-146.96;95.77
39105;BME280;46464;51.154;13.812;2023-03-21T00:28:05;52322.13;;;-146.96;96.05
39105;BME280;46464;51.154;13.812;2023-03-21T00:30:34;52313.97;;;-146.96;96.06
39105;BME280;46464;51.154;13.812;2023-03-21T00:33:00;52324.16;;;-146.96;96.02
39105;BME280;46464;51.154;13.812;2023-03-21T00:35:41;52279.41;;;-146.96;95.52
39105;BME280;46464;51.154;13.812;2023-03-21T00:38:30;52305.84;;;-146.96;94.86
39105;BME280;46464;51.154;13.812;2023-03-21T00:40:56;52307.88;;;-146.96;94.17
39105;BME280;46464;51.154;13.812;2023-03-21T00:43:29;52305.84;;;-146.96;95.01
39105;BME280;46464;51.154;13.812;2023-03-21T00:45:57;52340.44;;;-146.96;95.04
39105;BME280;46464;51.154;13.812;2023-03-21T00:48:25;52297.72;;;-146.96;95.67
39105;BME280;46464;51.154;13.812;2023-03-21T00:50:53;52324.16;;;-146.96;95.21
39105;BME280;46464;51.154;13.812;2023-03-21T00:53:20;52358.75;;;-146.96;95.09
39105;BME280;46464;51.154;13.812;2023-03-21T00:55:47;52311.94;;;-146.96;95.36
39105;BME280;46464;51.154;13.812;2023-03-21T00:58:14;52303.81;;;-146.96;95.67
39105;BME280;46464;51.154;13.812;2023-03-21T01:00:42;52352.66;;;-146.96;95.52
39105;BME280;46464;51.154;13.812;2023-03-21T01:03:12;52309.91;;;-146.96;95.63
39105;BME280;46464;51.154;13.812;2023-03-21T01:05:51;52350.59;;;-146.96;93.49
39105;BME280;46464;51.154;13.812;2023-03-21T01:08:35;52356.72;;;-146.96;91.26
39105;BME280;46464;51.154;13.812;2023-03-21T01:11:23;52338.41;;;-146.96;90.75
39105;BME280;46464;51.154;13.812;2023-03-21T01:13:51;52350.59;;;-146.96;91.29
39105;BME280;46464;51.154;13.812;2023-03-21T01:16:33;52350.59;;;-146.96;92.32
39105;BME280;46464;51.154;13.812;2023-03-21T01:18:59;52354.69;;;-146.96;93.30
39105;BME280;46464;51.154;13.812;2023-03-21T01:21:30;52309.91;;;-146.96;93.81
39105;BME280;46464;51.154;13.812;2023-03-21T01:23:57;52350.59;;;-146.96;94.19
39105;BME280;46464;51.154;13.812;2023-03-21T01:26:24;52305.84;;;-146.96;94.28
39105;BME280;46464;51.154;13.812;2023-03-21T01:28:50;52364.84;;;-146.96;94.26
39105;BME280;46464;51.154;13.812;2023-03-21T01:31:17;52344.50;;;-146.96;94.59
39105;BME280;46464;51.154;13.812;2023-03-21T01:33:44;52356.72;;;-146.96;94.62
39105;BME280;46464;51.154;13.812;2023-03-21T01:36:16;52360.78;;;-146.96;94.65
39105;BME280;46464;51.154;13.812;2023-03-21T01:38:47;52379.09;;;-146.96;94.98
39105;BME280;46464;51.154;13.812;2023-03-21T01:44:05;52338.41;;;-146.96;95.14
39105;BME280;46464;51.154;13.812;2023-03-21T01:46:36;52348.56;;;-146.96;94.94
39105;BME280;46464;51.154;13.812;2023-03-21T01:49:25;52336.38;;;-146.96;95.02
39105;BME280;46464;51.154;13.812;2023-03-21T01:52:00;52338.41;;;-146.96;94.60
39105;BME280;46464;51.154;13.812;2023-03-21T01:54:40;52366.88;;;-146.96;94.83
39105;BME280;46464;51.154;13.812;2023-03-21T01:57:15;52364.84;;;-146.96;94.20
39105;BME280;46464;51.154;13.812;2023-03-21T01:59:49;52348.56;;;-146.96;94.21
39105;BME280;46464;51.154;13.812;2023-03-21T02:02:23;52379.09;;;-146.96;94.31
39105;BME280;46464;51.154;13.812;2023-03-21T02:04:51;52375.03;;;-146.96;94.44
39105;BME280;46464;51.154;13.812;2023-03-21T02:07:28;52350.59;;;-146.96;94.44
39105;BME280;46464;51.154;13.812;2023-03-21T02:09:57;52362.81;;;-146.96;94.71
39105;BME280;46464;51.154;13.812;2023-03-21T02:12:25;52348.56;;;-146.96;94.25
39105;BME280;46464;51.154;13.812;2023-03-21T02:14:53;52362.81;;;-146.96;93.03
39105;BME280;46464;51.154;13.812;2023-03-21T02:23:16;52350.59;;;-146.96;91.10
39105;BME280;46464;51.154;13.812;2023-03-21T02:31:40;52348.56;;;-146.96;92.31
39105;BME280;46464;51.154;13.812;2023-03-21T02:37:20;52330.25;;;-146.96;91.45
39105;BME280;46464;51.154;13.812;2023-03-21T02:40:49;52328.22;;;-146.96;90.70
39105;BME280;46464;51.154;13.812;2023-03-21T02:43:13;52348.56;;;-146.96;88.27
39105;BME280;46464;51.154;13.812;2023-03-21T02:48:56;52330.25;;;-146.96;87.07
39105;BME280;46464;51.154;13.812;2023-03-21T02:51:24;52360.78;;;-146.96;86.90
39105;BME280;46464;51.154;13.812;2023-03-21T02:53:58;52299.75;;;-146.96;86.72
39105;BME280;46464;51.154;13.812;2023-03-21T02:56:47;52350.59;;;-146.96;86.50
39105;BME280;46464;51.154;13.812;2023-03-21T02:59:15;52379.09;;;-146.96;86.41
39105;BME280;46464;51.154;13.812;2023-03-21T03:01:42;52368.94;;;-146.96;86.28
39105;BME280;46464;51.154;13.812;2023-03-21T03:04:26;52362.81;;;-146.96;86.33
39105;BME280;46464;51.154;13.812;2023-03-21T03:07:12;52340.44;;;-146.96;86.60
39105;BME280;46464;51.154;13.812;2023-03-21T03:09:58;52389.28;;;-146.96;86.77
39105;BME280;46464;51.154;13.812;2023-03-21T03:15:17;52391.31;;;-146.96;86.74
39105;BME280;46464;51.154;13.812;2023-03-21T03:23:28;52385.19;;;-146.96;86.72
39105;BME280;46464;51.154;13.812;2023-03-21T03:26:07;52401.47;;;-146.96;86.91
39105;BME280;46464;51.154;13.812;2023-03-21T03:28:40;52399.44;;;-146.96;87.10
39105;BME280;46464;51.154;13.812;2023-03-21T03:31:11;52397.41;;;-146.96;87.11
39105;BME280;46464;51.154;13.812;2023-03-21T03:33:43;52366.88;;;-146.96;87.74
39105;BME280;46464;51.154;13.812;2023-03-21T03:36:12;52342.47;;;-146.96;88.22
39105;BME280;46464;51.154;13.812;2023-03-21T03:38:58;52399.44;;;-146.96;88.79
39105;BME280;46464;51.154;13.812;2023-03-21T03:41:26;52397.41;;;-146.96;88.65
39105;BME280;46464;51.154;13.812;2023-03-21T03:43:58;52401.47;;;-146.96;88.24
39105;BME280;46464;51.154;13.812;2023-03-21T03:46:29;52383.16;;;-146.96;88.10
39105;BME280;46464;51.154;13.812;2023-03-21T03:49:08;52373.00;;;-146.96;86.94
39105;BME280;46464;51.154;13.812;2023-03-21T03:51:42;52356.72;;;-146.96;87.64
39105;BME280;46464;51.154;13.812;2023-03-21T03:54:16;52385.19;;;-146.96;88.05
39105;BME280;46464;51.154;13.812;2023-03-21T03:56:44;52391.31;;;-146.96;88.57
39105;BME280;46464;51.154;13.812;2023-03-21T03:59:14;52377.06;;;-146.96;86.44
39105;BME280;46464;51.154;13.812;2023-03-21T04:01:44;52362.81;;;-146.96;86.85
39105;BME280;46464;51.154;13.812;2023-03-21T04:04:11;52358.75;;;-146.96;87.68
39105;BME280;46464;51.154;13.812;2023-03-21T04:06:39;52346.53;;;-146.96;88.10
39105;BME280;46464;51.154;13.812;2023-03-21T04:09:06;52403.50;;;-146.96;88.54
39105;BME280;46464;51.154;13.812;2023-03-21T04:11:44;52379.09;;;-146.96;88.81
39105;BME280;46464;51.154;13.812;2023-03-21T04:14:11;52385.19;;;-146.96;89.23
39105;BME280;46464;51.154;13.812;2023-03-21T04:16:38;52362.81;;;-146.96;89.43
39105;BME280;46464;51.154;13.812;2023-03-21T04:19:04;52393.34;;;-146.96;89.42
39105;BME280;46464;51.154;13.812;2023-03-21T04:21:31;52383.16;;;-146.96;89.11
39105;BME280;46464;51.154;13.812;2023-03-21T04:23:57;52346.53;;;-146.96;88.90
39105;BME280;46464;51.154;13.812;2023-03-21T04:26:24;52405.56;;;-146.96;89.32
39105;BME280;46464;51.154;13.812;2023-03-21T04:28:56;52395.38;;;-146.96;89.44
39105;BME280;46464;51.154;13.812;2023-03-21T04:31:25;52352.66;;;-146.96;89.68
39105;BME280;46464;51.154;13.812;2023-03-21T04:33:53;52366.88;;;-146.96;88.89
39105;BME280;46464;51.154;13.812;2023-03-21T04:36:21;52413.69;;;-146.96;88.63
39105;BME280;46464;51.154;13.812;2023-03-21T04:38:53;52399.44;;;-146.96;88.59
39105;BME280;46464;51.154;13.812;2023-03-21T04:41:20;52395.38;;;-146.96;89.01
39105;BME280;46464;51.154;13.812;2023-03-21T04:43:46;52395.38;;;-146.96;89.54
39105;BME280;46464;51.154;13.812;2023-03-21T04:46:13;52366.88;;;-146.96;89.93
39105;BME280;46464;51.154;13.812;2023-03-21T04:48:40;52393.34;;;-146.96;90.19
39105;BME280;46464;51.154;13.812;2023-03-21T04:51:07;52362.81;;;-146.96;89.68
39105;BME280;46464;51.154;13.812;2023-03-21T04:53:34;52360.78;;;-146.96;89.82
39105;BME280;46464;51.154;13.812;2023-03-21T04:56:00;52354.69;;;-146.96;90.03
39105;BME280;46464;51.154;13.812;2023-03-21T04:58:27;52397.41;;;-146.96;90.44
39105;BME280;46464;51.154;13.812;2023-03-21T05:00:53;52385.19;;;-146.96;90.75
39105;BME280;46464;51.154;13.812;2023-03-21T05:03:20;52342.47;;;-146.96;90.99
39105;BME280;46464;51.154;13.812;2023-03-21T05:05:47;52403.50;;;-146.96;91.17
39105;BME280;46464;51.154;13.812;2023-03-21T05:08:17;52401.47;;;-146.96;91.01
39105;BME280;46464;51.154;13.812;2023-03-21T05:10:43;52409.63;;;-146.96;90.98
39105;BME280;46464;51.154;13.812;2023-03-21T05:13:11;52373.00;;;-146.96;91.07
39105;BME280;46464;51.154;13.812;2023-03-21T05:15:37;52366.88;;;-146.96;91.34
39105;BME280;46464;51.154;13.812;2023-03-21T05:18:04;52407.59;;;-146.96;91.51
39105;BME280;46464;51.154;13.812;2023-03-21T05:20:39;52399.44;;;-146.96;91.80
39105;BME280;46464;51.154;13.812;2023-03-21T05:23:09;52360.78;;;-146.96;92.02
39105;BME280;46464;51.154;13.812;2023-03-21T05:25:38;52407.59;;;-146.96;92.41
39105;BME280;46464;51.154;13.812;2023-03-21T05:28:06;52415.72;;;-146.96;92.65
39105;BME280;46464;51.154;13.812;2023-03-21T05:30:33;52377.06;;;-146.96;92.44
39105;BME280;46464;51.154;13.812;2023-03-21T05:32:59;52364.84;;;-146.96;92.78
39105;BME280;46464;51.154;13.812;2023-03-21T05:35:26;52405.56;;;-146.96;93.52
39105;BME280;46464;51.154;13.812;2023-03-21T05:37:53;52354.69;;;-146.96;92.73
39105;BME280;46464;51.154;13.812;2023-03-21T05:40:19;52397.41;;;-146.96;92.51
39105;BME280;46464;51.154;13.812;2023-03-21T05:42:46;52375.03;;;-146.96;92.35
39105;BME280;46464;51.154;13.812;2023-03-21T05:45:13;52395.38;;;-146.96;91.20
39105;BME280;46464;51.154;13.812;2023-03-21T05:47:39;52403.50;;;-146.96;91.29
39105;BME280;46464;51.154;13.812;2023-03-21T05:50:06;52364.84;;;-146.96;90.01
39105;BME280;46464;51.154;13.812;2023-03-21T05:52:33;52370.97;;;-146.96;89.26
39105;BME280;46464;51.154;13.812;2023-03-21T05:54:59;52379.09;;;-146.96;89.31
39105;BME280;46464;51.154;13.812;2023-03-21T05:57:26;52393.34;;;-146.96;89.04
39105;BME280;46464;51.154;13.812;2023-03-21T05:59:54;52415.72;;;-146.96;89.72
39105;BME280;46464;51.154;13.812;2023-03-21T06:02:20;52364.84;;;-146.96;89.55
39105;BME280;46464;51.154;13.812;2023-03-21T06:04:47;52389.28;;;-146.96;88.58
39105;BME280;46464;51.154;13.812;2023-03-21T06:07:14;52366.88;;;-146.96;88.08
39105;BME280;46464;51.154;13.812;2023-03-21T06:09:40;52366.88;;;-146.96;87.97
39105;BME280;46464;51.154;13.812;2023-03-21T06:12:07;52391.31;;;-146.96;88.16
39105;BME280;46464;51.154;13.812;2023-03-21T06:14:33;52362.81;;;-146.96;88.72
39105;BME280;46464;51.154;13.812;2023-03-21T06:17:00;52377.06;;;-146.96;85.73
39105;BME280;46464;51.154;13.812;2023-03-21T06:19:26;52385.19;;;-146.96;86.08
39105;BME280;46464;51.154;13.812;2023-03-21T06:21:53;52352.66;;;-146.96;86.37
39105;BME280;46464;51.154;13.812;2023-03-21T06:24:20;52387.22;;;-146.96;86.79
39105;BME280;46464;51.154;13.812;2023-03-21T06:26:46;52387.22;;;-146.96;85.68
39105;BME280;46464;51.154;13.812;2023-03-21T06:29:13;52381.13;;;-146.96;86.02
39105;BME280;46464;51.154;13.812;2023-03-21T06:31:40;52403.50;;;-146.96;85.87
39105;BME280;46464;51.154;13.812;2023-03-21T06:34:06;52395.38;;;-146.96;86.09
39105;BME280;46464;51.154;13.812;2023-03-21T06:36:33;52379.09;;;-146.96;86.14
39105;BME280;46464;51.154;13.812;2023-03-21T06:38:59;52375.03;;;-146.96;85.73
39105;BME280;46464;51.154;13.812;2023-03-21T06:41:26;52425.91;;;-146.96;86.11
39105;BME280;46464;51.154;13.812;2023-03-21T06:43:53;52366.88;;;-146.96;86.92
39105;BME280;46464;51.154;13.812;2023-03-21T06:46:19;52358.75;;;-146.96;86.82
39105;BME280;46464;51.154;13.812;2023-03-21T06:48:46;52375.03;;;-146.96;87.52
39105;BME280;46464;51.154;13.812;2023-03-21T06:51:13;52368.94;;;-146.96;87.58
39105;BME280;46464;51.154;13.812;2023-03-21T06:53:40;52344.50;;;-146.96;88.22
39105;BME280;46464;51.154;13.812;2023-03-21T06:56:10;52368.94;;;-146.96;89.17
39105;BME280;46464;51.154;13.812;2023-03-21T06:58:37;52336.38;;;-146.96;89.17
39105;BME280;46464;51.154;13.812;2023-03-21T07:01:04;52379.09;;;-146.96;88.89
39105;BME280;46464;51.154;13.812;2023-03-21T07:03:32;52385.19;;;-146.96;89.17
39105;BME280;46464;51.154;13.812;2023-03-21T07:06:04;52381.13;;;-146.96;87.96
39105;BME280;46464;51.154;13.812;2023-03-21T07:08:32;52346.53;;;-146.96;88.31
39105;BME280;46464;51.154;13.812;2023-03-21T07:10:59;52360.78;;;-146.96;87.67
39105;BME280;46464;51.154;13.812;2023-03-21T07:13:25;52373.00;;;-146.96;87.08
39105;BME280;46464;51.154;13.812;2023-03-21T07:15:52;52342.47;;;-146.96;86.71
39105;BME280;46464;51.154;13.812;2023-03-21T07:18:19;52346.53;;;-146.96;86.36
39105;BME280;46464;51.154;13.812;2023-03-21T07:20:47;52364.84;;;-146.96;87.11
39105;BME280;46464;51.154;13.812;2023-03-21T07:23:21;52346.53;;;-146.96;88.15
39105;BME280;46464;51.154;13.812;2023-03-21T07:25:49;52364.84;;;-146.96;86.82
39105;BME280;46464;51.154;13.812;2023-03-21T07:28:16;52362.81;;;-146.96;86.48
39105;BME280;46464;51.154;13.812;2023-03-21T07:30:44;52387.22;;;-146.96;86.58
39105;BME280;46464;51.154;13.812;2023-03-21T07:33:11;52364.84;;;-146.96;85.54
39105;BME280;46464;51.154;13.812;2023-03-21T07:35:38;52391.31;;;-146.96;86.05
39105;BME280;46464;51.154;13.812;2023-03-21T07:38:05;52362.81;;;-146.96;87.14
39105;BME280;46464;51.154;13.812;2023-03-21T07:40:32;52379.09;;;-146.96;87.36
39105;BME280;46464;51.154;13.812;2023-03-21T07:43:01;52387.22;;;-146.96;86.92
39105;BME280;46464;51.154;13.812;2023-03-21T07:45:28;52342.47;;;-146.96;86.61
39105;BME280;46464;51.154;13.812;2023-03-21T07:47:54;52366.88;;;-146.96;86.57
39105;BME280;46464;51.154;13.812;2023-03-21T07:50:31;52324.16;;;-146.96;86.49
39105;BME280;46464;51.154;13.812;2023-03-21T07:52:57;52391.31;;;-146.96;85.21
39105;BME280;46464;51.154;13.812;2023-03-21T07:55:24;52352.66;;;-146.96;87.07
39105;BME280;46464;51.154;13.812;2023-03-21T07:57:51;52358.75;;;-146.96;86.81
39105;BME280;46464;51.154;13.812;2023-03-21T08:00:19;52364.84;;;-146.96;86.77
39105;BME280;46464;51.154;13.812;2023-03-21T08:02:50;52354.69;;;-146.96;85.67
39105;BME280;46464;51.154;13.812;2023-03-21T08:07:52;52346.53;;;-146.96;86.94
39105;BME280;46464;51.154;13.812;2023-03-21T08:10:19;52350.59;;;-146.96;88.55
39105;BME280;46464;51.154;13.812;2023-03-21T08:12:46;52350.59;;;-146.96;89.57
39105;BME280;46464;51.154;13.812;2023-03-21T08:15:13;52350.59;;;-146.96;86.11
39105;BME280;46464;51.154;13.812;2023-03-21T08:17:40;52328.22;;;-146.96;84.58
39105;BME280;46464;51.154;13.812;2023-03-21T08:20:08;52326.19;;;-146.96;85.38
39105;BME280;46464;51.154;13.812;2023-03-21T08:22:35;52344.50;;;-146.96;84.04
39105;BME280;46464;51.154;13.812;2023-03-21T08:25:04;52338.41;;;-146.96;84.46
39105;BME280;46464;51.154;13.812;2023-03-21T08:27:31;52373.00;;;-146.96;84.02
39105;BME280;46464;51.154;13.812;2023-03-21T08:29:59;52342.47;;;-146.96;84.51
39105;BME280;46464;51.154;13.812;2023-03-21T08:32:26;52348.56;;;-146.96;82.19
39105;BME280;46464;51.154;13.812;2023-03-21T08:35:00;52305.84;;;-146.96;82.55
39105;BME280;46464;51.154;13.812;2023-03-21T08:37:27;52338.41;;;-146.96;82.92
39105;BME280;46464;51.154;13.812;2023-03-21T08:39:54;52342.47;;;-146.96;83.29
39105;BME280;46464;51.154;13.812;2023-03-21T08:42:21;52354.69;;;-146.96;82.74
39105;BME280;46464;51.154;13.812;2023-03-21T08:44:48;52293.63;;;-146.96;81.09
39105;BME280;46464;51.154;13.812;2023-03-21T08:47:15;52326.19;;;-146.96;80.29
39105;BME280;46464;51.154;13.812;2023-03-21T08:49:41;52307.88;;;-146.96;80.74
39105;BME280;46464;51.154;13.812;2023-03-21T08:52:11;52324.16;;;-146.96;82.28
39105;BME280;46464;51.154;13.812;2023-03-21T08:54:37;52311.94;;;-146.96;81.60
39105;BME280;46464;51.154;13.812;2023-03-21T08:57:05;52267.19;;;-146.96;80.69
39105;BME280;46464;51.154;13.812;2023-03-21T08:59:32;52305.84;;;-146.96;81.60
39105;BME280;46464;51.154;13.812;2023-03-21T09:01:58;52332.28;;;-146.96;80.68
39105;BME280;46464;51.154;13.812;2023-03-21T09:04:25;52305.84;;;-146.96;79.14
39105;BME280;46464;51.154;13.812;2023-03-21T09:06:52;52334.34;;;-146.96;78.70
39105;BME280;46464;51.154;13.812;2023-03-21T09:09:21;52334.34;;;-146.96;78.28
39105;BME280;46464;51.154;13.812;2023-03-21T09:11:48;52338.41;;;-146.96;79.30
39105;BME280;46464;51.154;13.812;2023-03-21T09:14:17;52318.06;;;-146.96;78.11
39105;BME280;46464;51.154;13.812;2023-03-21T09:16:45;52299.75;;;-146.96;79.36
39105;BME280;46464;51.154;13.812;2023-03-21T09:19:12;52348.56;;;-146.96;79.17
39105;BME280;46464;51.154;13.812;2023-03-21T09:21:38;52313.97;;;-146.96;79.24
39105;BME280;46464;51.154;13.812;2023-03-21T09:24:06;52281.44;;;-146.96;78.53
39105;BME280;46464;51.154;13.812;2023-03-21T09:26:32;52279.41;;;-146.96;78.56
39105;BME280;46464;51.154;13.812;2023-03-21T09:29:01;52344.50;;;-146.96;78.73
39105;BME280;46464;51.154;13.812;2023-03-21T09:31:31;52348.56;;;-146.96;79.29
39105;BME280;46464;51.154;13.812;2023-03-21T09:33:58;52295.66;;;-146.96;79.71
39105;BME280;46464;51.154;13.812;2023-03-21T09:36:25;52309.91;;;-146.96;78.53
39105;BME280;46464;51.154;13.812;2023-03-21T09:38:53;52328.22;;;-146.96;79.05
39105;BME280;46464;51.154;13.812;2023-03-21T09:41:47;52287.53;;;-146.96;78.88
39105;BME280;46464;51.154;13.812;2023-03-21T09:44:38;52289.56;;;-146.96;78.38
39105;BME280;46464;51.154;13.812;2023-03-21T09:47:20;52328.22;;;-146.96;78.27
39105;BME280;46464;51.154;13.812;2023-03-21T09:50:12;52305.84;;;-146.96;77.55
39105;BME280;46464;51.154;13.812;2023-03-21T09:52:46;52305.84;;;-146.96;79.25
39105;BME280;46464;51.154;13.812;2023-03-21T09:55:19;52307.88;;;-146.96;78.28
39105;BME280;46464;51.154;13.812;2023-03-21T09:57:49;52265.16;;;-146.96;76.05
39105;BME280;46464;51.154;13.812;2023-03-21T10:00:21;52293.63;;;-146.96;76.14
39105;BME280;46464;51.154;13.812;2023-03-21T10:02:53;52318.06;;;-146.96;76.79
39105;BME280;46464;51.154;13.812;2023-03-21T10:05:25;52277.34;;;-146.96;77.87
39105;BME280;46464;51.154;13.812;2023-03-21T10:08:08;52287.53;;;-146.96;74.81
39105;BME280;46464;51.154;13.812;2023-03-21T10:10:44;52277.34;;;-146.96;75.22
39105;BME280;46464;51.154;13.812;2023-03-21T10:13:24;52318.06;;;-146.96;76.98
39105;BME280;46464;51.154;13.812;2023-03-21T10:16:01;52248.88;;;-146.96;75.15
39105;BME280;46464;51.154;13.812;2023-03-21T10:18:31;52261.09;;;-146.96;75.38
39105;BME280;46464;51.154;13.812;2023-03-21T10:21:04;52254.97;;;-146.96;73.70
39105;BME280;46464;51.154;13.812;2023-03-21T10:23:31;52224.47;;;-146.96;76.07
39105;BME280;46464;51.154;13.812;2023-03-21T10:26:00;52242.78;;;-146.96;76.62
39105;BME280;46464;51.154;13.812;2023-03-21T10:28:32;52236.66;;;-146.96;71.86
39105;BME280;46464;51.154;13.812;2023-03-21T10:31:19;52216.31;;;-146.96;74.88
39105;BME280;46464;51.154;13.812;2023-03-21T10:33:48;52248.88;;;-146.96;72.29
39105;BME280;46464;51.154;13.812;2023-03-21T10:36:19;52214.28;;;-146.96;72.37
39105;BME280;46464;51.154;13.812;2023-03-21T10:38:52;52228.53;;;-146.96;70.14
39105;BME280;46464;51.154;13.812;2023-03-21T10:41:20;52238.69;;;-146.96;71.18
39105;BME280;46464;51.154;13.812;2023-03-21T10:44:04;52220.38;;;-146.96;70.86
39105;BME280;46464;51.154;13.812;2023-03-21T10:46:30;52193.94;;;-146.96;72.27
39105;BME280;46464;51.154;13.812;2023-03-21T10:49:02;52216.31;;;-146.96;71.88
39105;BME280;46464;51.154;13.812;2023-03-21T10:51:35;52189.88;;;-146.96;72.40
39105;BME280;46464;51.154;13.812;2023-03-21T10:54:07;52208.19;;;-146.96;70.36
39105;BME280;46464;51.154;13.812;2023-03-21T10:56:43;52210.22;;;-146.96;68.44
39105;BME280;46464;51.154;13.812;2023-03-21T10:59:17;52200.03;;;-146.96;67.44
39105;BME280;46464;51.154;13.812;2023-03-21T11:01:49;52214.28;;;-146.96;70.54
39105;BME280;46464;51.154;13.812;2023-03-21T11:04:19;52212.25;;;-146.96;70.73
39105;BME280;46464;51.154;13.812;2023-03-21T11:06:58;52191.91;;;-146.96;69.11
39105;BME280;46464;51.154;13.812;2023-03-21T11:09:49;52185.81;;;-146.96;66.79
39105;BME280;46464;51.154;13.812;2023-03-21T11:12:34;52189.88;;;-146.96;68.00
39105;BME280;46464;51.154;13.812;2023-03-21T11:17:52;52195.97;;;-146.96;66.65
39105;BME280;46464;51.154;13.812;2023-03-21T11:20:19;52187.84;;;-146.96;67.29
39105;BME280;46464;51.154;13.812;2023-03-21T11:22:47;52165.44;;;-146.96;65.58
39105;BME280;46464;51.154;13.812;2023-03-21T11:25:26;52204.13;;;-146.96;67.28
39105;BME280;46464;51.154;13.812;2023-03-21T11:27:58;52183.75;;;-146.96;65.45
39105;BME280;46464;51.154;13.812;2023-03-21T11:30:26;52141.03;;;-146.96;66.26
39105;BME280;46464;51.154;13.812;2023-03-21T11:32:56;52161.38;;;-146.96;65.79
39105;BME280;46464;51.154;13.812;2023-03-21T11:35:37;52212.25;;;-146.96;66.68
39105;BME280;46464;51.154;13.812;2023-03-21T11:38:06;52171.56;;;-146.96;65.36
39105;BME280;46464;51.154;13.812;2023-03-21T11:40:56;52159.34;;;-146.96;65.36
39105;BME280;46464;51.154;13.812;2023-03-21T11:43:29;52120.69;;;-146.96;66.74
39105;BME280;46464;51.154;13.812;2023-03-21T11:48:37;52161.38;;;-146.96;64.08
39105;BME280;46464;51.154;13.812;2023-03-21T11:51:13;52134.94;;;-146.96;65.48
39105;BME280;46464;51.154;13.812;2023-03-21T11:53:48;52212.25;;;-146.96;63.27
39105;BME280;46464;51.154;13.812;2023-03-21T11:58:53;52171.56;;;-146.96;64.05
39105;BME280;46464;51.154;13.812;2023-03-21T12:10:23;52177.66;;;-146.96;63.74
39105;BME280;46464;51.154;13.812;2023-03-21T12:21:03;52145.09;;;-146.96;62.79
39105;BME280;46464;51.154;13.812;2023-03-21T12:28:46;52139.00;;;-146.96;64.52
39105;BME280;46464;51.154;13.812;2023-03-21T12:31:43;52118.66;;;-146.96;62.99
39105;BME280;46464;51.154;13.812;2023-03-21T12:37:31;52130.88;;;-146.96;63.69
39105;BME280;46464;51.154;13.812;2023-03-21T12:40:25;52096.28;;;-146.96;62.82
39105;BME280;46464;51.154;13.812;2023-03-21T12:43:11;52112.56;;;-146.96;62.82
39105;BME280;46464;51.154;13.812;2023-03-21T12:45:48;52139.00;;;-146.96;62.00
39105;BME280;46464;51.154;13.812;2023-03-21T12:48:37;52118.66;;;-146.96;62.12
39105;BME280;46464;51.154;13.812;2023-03-21T12:51:13;52106.44;;;-146.96;62.92
39105;BME280;46464;51.154;13.812;2023-03-21T12:53:43;52100.34;;;-146.96;62.32
39105;BME280;46464;51.154;13.812;2023-03-21T12:59:13;52116.63;;;-146.96;62.55
39105;BME280;46464;51.154;13.812;2023-03-21T13:01:44;52130.88;;;-146.96;60.19
39105;BME280;46464;51.154;13.812;2023-03-21T13:04:37;52096.28;;;-146.96;59.65
39105;BME280;46464;51.154;13.812;2023-03-21T13:07:09;52080.00;;;-146.96;59.65
39105;BME280;46464;51.154;13.812;2023-03-21T13:09:40;52104.41;;;-146.96;60.46
39105;BME280;46464;51.154;13.812;2023-03-21T13:12:31;52141.03;;;-146.96;60.34
39105;BME280;46464;51.154;13.812;2023-03-21T13:15:17;52139.00;;;-146.96;60.42
39105;BME280;46464;51.154;13.812;2023-03-21T13:17:57;52098.31;;;-146.96;59.99
39105;BME280;46464;51.154;13.812;2023-03-21T13:20:34;52106.44;;;-146.96;59.29
39105;BME280;46464;51.154;13.812;2023-03-21T13:23:07;52126.78;;;-146.96;60.55
39105;BME280;46464;51.154;13.812;2023-03-21T13:25:45;52071.84;;;-146.96;60.91
39105;BME280;46464;51.154;13.812;2023-03-21T13:28:19;52098.31;;;-146.96;61.91
39105;BME280;46464;51.154;13.812;2023-03-21T13:30:46;52094.25;;;-146.96;60.88
39105;BME280;46464;51.154;13.812;2023-03-21T13:33:28;52090.16;;;-146.96;60.66
39105;BME280;46464;51.154;13.812;2023-03-21T13:36:00;52124.75;;;-146.96;60.43
39105;BME280;46464;51.154;13.812;2023-03-21T13:38:35;52102.38;;;-146.96;62.57
39105;BME280;46464;51.154;13.812;2023-03-21T13:41:08;52094.25;;;-146.96;60.02
39105;BME280;46464;51.154;13.812;2023-03-21T13:46:12;52104.41;;;-146.96;59.64
39105;BME280;46464;51.154;13.812;2023-03-21T13:56:49;52077.97;;;-146.96;58.68
39105;BME280;46464;51.154;13.812;2023-03-21T13:59:18;52075.94;;;-146.96;59.77
39105;BME280;46464;51.154;13.812;2023-03-21T14:04:39;52080.00;;;-146.96;59.21
39105;BME280;46464;51.154;13.812;2023-03-21T14:07:32;52098.31;;;-146.96;58.99
39105;BME280;46464;51.154;13.812;2023-03-21T14:10:03;52106.44;;;-146.96;58.65
39105;BME280;46464;51.154;13.812;2023-03-21T14:12:40;52082.03;;;-146.96;59.06